Time;durP1;ratioP1;P1;durP2;ratioP2;P2;SDS_P1;SDS_P2;PMS_P1;PMS_P2;Temp;Humidity;BMP_temperature;BMP_pressure;BME280_temperature;BME280_humidity;BME280_pressure;Samples;Min_cycle;Max_cycle;Signal;HPM_P1;HPM_P2
2022/07/13 00:00:11;;;;;;;1529.07;999.90;;;25.30;99.90;;;;;;5075082;28;20223;-80
2022/07/13 00:02:37;;;;;;;1546.60;999.90;;;25.30;99.90;;;;;;5081120;28;20188;-80
2022/07/13 00:05:03;;;;;;;1558.60;999.90;;;25.20;99.90;;;;;;5076797;28;20572;-80
2022/07/13 00:07:33;;;;;;;1547.00;999.90;;;25.20;99.90;;;;;;5077124;28;20207;-80
2022/07/13 00:09:58;;;;;;;1562.85;999.90;;;25.20;99.90;;;;;;5078244;28;20283;-80
2022/07/13 00:12:24;;;;;;;1564.38;999.90;;;25.20;99.90;;;;;;5095164;28;20268;-80
2022/07/13 00:14:50;;;;;;;1565.70;999.90;;;25.20;99.90;;;;;;5074042;28;20196;-78
2022/07/13 00:17:16;;;;;;;1580.88;999.90;;;25.20;99.90;;;;;;5069730;28;20184;-80
2022/07/13 00:19:42;;;;;;;1571.45;999.90;;;25.20;99.90;;;;;;5084627;28;20270;-79
2022/07/13 00:22:13;;;;;;;1565.30;999.90;;;25.10;99.90;;;;;;5087596;28;20196;-80
2022/07/13 00:24:39;;;;;;;1516.65;999.90;;;25.20;99.90;;;;;;5092887;28;20192;-79
2022/07/13 00:27:04;;;;;;;1433.10;999.90;;;25.20;99.90;;;;;;5051736;28;20549;-80
2022/07/13 00:29:30;;;;;;;1276.35;985.30;;;25.10;99.90;;;;;;5081351;28;20669;-80
2022/07/13 00:31:55;;;;;;;1214.00;919.00;;;25.10;99.90;;;;;;5087886;28;20558;-79
2022/07/13 00:34:21;;;;;;;1590.53;945.95;;;25.10;99.90;;;;;;5075438;28;20261;-79
2022/07/13 00:36:47;;;;;;;1087.95;810.95;;;25.10;99.90;;;;;;5071492;28;20235;-80
2022/07/13 00:39:12;;;;;;;1999.90;999.90;;;25.10;99.90;;;;;;5059103;28;20188;-79
2022/07/13 00:41:48;;;;;;;1199.55;756.00;;;25.10;99.90;;;;;;5095097;28;20626;-79
2022/07/13 00:44:15;;;;;;;1999.90;999.90;;;25.10;99.90;;;;;;5077512;28;20556;-80
2022/07/13 00:46:44;;;;;;;1357.28;745.28;;;25.10;99.90;;;;;;5091296;28;20189;-79
2022/07/13 00:49:11;;;;;;;1001.17;593.00;;;25.00;99.90;;;;;;5064763;28;20272;-80
2022/07/13 00:51:38;;;;;;;1327.65;723.50;;;25.00;99.90;;;;;;5059533;28;20301;-78
2022/07/13 00:54:04;;;;;;;1649.10;850.08;;;25.00;99.90;;;;;;5080105;28;20177;-80
2022/07/13 00:56:31;;;;;;;1676.28;873.78;;;24.90;99.90;;;;;;5074476;28;20262;-80
2022/07/13 00:59:01;;;;;;;1683.95;880.22;;;25.00;99.90;;;;;;5074518;28;20508;-79
2022/07/13 01:01:30;;;;;;;1999.90;999.90;;;25.00;99.90;;;;;;5093678;28;20211;-80
2022/07/13 01:03:56;;;;;;;900.58;673.47;;;25.20;99.90;;;;;;5076771;28;20188;-80
2022/07/13 01:06:22;;;;;;;1459.63;841.92;;;25.10;99.90;;;;;;5080640;28;20195;-80
2022/07/13 01:08:48;;;;;;;1050.20;788.58;;;25.10;99.90;;;;;;5091676;28;20536;-80
2022/07/13 01:11:14;;;;;;;1560.18;931.90;;;25.00;99.90;;;;;;5073281;28;20189;-80
2022/07/13 01:13:40;;;;;;;1148.95;889.97;;;25.10;99.90;;;;;;5075381;28;20188;-79
2022/07/13 01:16:08;;;;;;;1604.10;964.60;;;25.00;99.90;;;;;;5076093;28;20184;-80
2022/07/13 01:18:34;;;;;;;1156.72;894.35;;;25.10;99.90;;;;;;5093873;28;20272;-79
2022/07/13 01:21:02;;;;;;;1097.03;839.70;;;25.10;99.90;;;;;;5073540;28;20684;-80
2022/07/13 01:23:28;;;;;;;1283.97;992.92;;;25.20;99.90;;;;;;5082582;28;20181;-81
2022/07/13 01:25:56;;;;;;;1168.03;898.22;;;25.40;99.90;;;;;;5067576;28;20192;-80
2022/07/13 01:28:23;;;;;;;1397.95;942.58;;;25.30;99.90;;;;;;5063434;28;20228;-80
2022/07/13 01:30:49;;;;;;;1626.47;986.22;;;25.40;99.90;;;;;;5068439;28;20188;-80
2022/07/13 01:33:15;;;;;;;1298.65;996.50;;;25.30;99.90;;;;;;5074392;28;20423;-81
2022/07/13 01:35:40;;;;;;;1840.03;999.90;;;25.30;99.90;;;;;;5074316;28;20188;-80
2022/07/13 01:38:06;;;;;;;1331.32;999.90;;;25.30;99.90;;;;;;5078041;28;20190;-80
2022/07/13 01:40:32;;;;;;;1465.03;997.90;;;25.40;99.90;;;;;;5074351;28;20666;-80
2022/07/13 01:42:58;;;;;;;1269.28;985.38;;;25.40;99.90;;;;;;5060491;28;20193;-81
2022/07/13 01:45:24;;;;;;;1266.50;981.05;;;25.40;99.90;;;;;;5068220;28;20188;-81
2022/07/13 01:47:53;;;;;;;1463.53;992.03;;;25.30;99.90;;;;;;5080097;28;20196;-81
2022/07/13 01:50:21;;;;;;;1683.00;999.90;;;25.50;99.90;;;;;;5077190;28;20207;-81
2022/07/13 01:52:47;;;;;;;1698.25;999.90;;;25.60;99.90;;;;;;5066290;28;20271;-80
2022/07/13 01:55:14;;;;;;;1322.70;999.90;;;25.50;99.90;;;;;;5073975;28;20181;-81
2022/07/13 01:57:40;;;;;;;1387.07;999.90;;;25.50;99.90;;;;;;5083946;28;20180;-80
2022/07/13 02:00:12;;;;;;;1686.88;999.90;;;25.40;99.90;;;;;;5042784;28;20681;-80
2022/07/13 02:02:39;;;;;;;1422.88;999.90;;;25.30;99.90;;;;;;5089354;28;20188;-81
2022/07/13 02:05:05;;;;;;;1728.45;999.90;;;25.20;99.90;;;;;;5064842;28;20200;-80
2022/07/13 02:07:30;;;;;;;1410.93;999.90;;;25.10;99.90;;;;;;5061155;28;20186;-81
2022/07/13 02:09:59;;;;;;;1448.60;999.90;;;25.20;99.90;;;;;;5080628;28;20196;-81
2022/07/13 02:12:24;;;;;;;1450.03;999.90;;;25.20;99.90;;;;;;5080446;28;20528;-81
2022/07/13 02:14:53;;;;;;;1425.63;999.90;;;25.30;99.90;;;;;;5054932;28;20188;-80
2022/07/13 02:17:18;;;;;;;1474.75;999.90;;;25.30;99.90;;;;;;5068884;28;20177;-80
2022/07/13 02:19:44;;;;;;;1489.13;999.90;;;25.40;99.90;;;;;;5089850;28;20625;-81
2022/07/13 02:22:10;;;;;;;1483.18;999.90;;;25.40;99.90;;;;;;5085434;28;20192;-80
2022/07/13 02:24:35;;;;;;;1588.15;999.90;;;25.30;99.90;;;;;;5072788;28;20638;-80
2022/07/13 02:27:01;;;;;;;1482.75;999.90;;;25.20;99.90;;;;;;5067911;28;20185;-81
2022/07/13 02:29:26;;;;;;;1500.15;999.90;;;25.20;99.90;;;;;;5073630;28;20212;-79
2022/07/13 02:31:52;;;;;;;1532.53;999.90;;;25.10;99.90;;;;;;5059270;28;20633;-81
2022/07/13 02:34:18;;;;;;;1531.90;999.90;;;25.10;99.90;;;;;;5074703;28;20188;-81
2022/07/13 02:36:43;;;;;;;1514.53;999.90;;;25.10;99.90;;;;;;5059609;28;20657;-81
2022/07/13 02:39:09;;;;;;;1542.07;999.90;;;25.20;99.90;;;;;;5079613;28;20211;-81
2022/07/13 02:41:35;;;;;;;1509.35;999.90;;;25.30;99.90;;;;;;5071226;28;20282;-79
2022/07/13 02:44:01;;;;;;;1506.60;999.90;;;25.20;99.90;;;;;;5057711;28;20184;-79
2022/07/13 02:46:26;;;;;;;1508.20;999.90;;;25.20;99.90;;;;;;5069627;28;20189;-81
2022/07/13 02:48:52;;;;;;;1525.85;999.90;;;25.10;99.90;;;;;;5072073;28;20545;-80
2022/07/13 02:51:18;;;;;;;1553.35;999.90;;;25.20;99.90;;;;;;5085542;28;20667;-80
2022/07/13 02:53:44;;;;;;;1540.25;999.90;;;25.20;99.90;;;;;;5057106;28;20188;-80
2022/07/13 02:56:09;;;;;;;1528.05;999.90;;;25.20;99.90;;;;;;5067281;28;20189;-79
2022/07/13 02:58:35;;;;;;;1509.90;999.90;;;25.10;99.90;;;;;;5060681;28;20631;-78
2022/07/13 03:01:01;;;;;;;1499.32;999.90;;;25.10;99.90;;;;;;5081338;28;20206;-81
2022/07/13 03:03:26;;;;;;;1546.05;999.90;;;25.30;99.90;;;;;;5081556;28;20607;-81
2022/07/13 03:05:52;;;;;;;1490.30;999.90;;;25.40;99.90;;;;;;5081150;28;20291;-79
2022/07/13 03:08:18;;;;;;;1459.70;999.90;;;25.40;99.90;;;;;;5073984;28;20216;-81
2022/07/13 03:10:43;;;;;;;1521.00;999.90;;;25.40;99.90;;;;;;5086323;28;20267;-81
2022/07/13 03:13:09;;;;;;;1530.65;999.90;;;25.20;99.90;;;;;;5085910;28;20678;-80
2022/07/13 03:15:34;;;;;;;1468.57;999.90;;;25.10;99.90;;;;;;5078614;28;20524;-81
2022/07/13 03:18:00;;;;;;;1473.88;999.90;;;25.10;99.90;;;;;;5053881;28;20192;-81
2022/07/13 03:20:26;;;;;;;1461.63;999.90;;;25.20;99.90;;;;;;5086461;28;20239;-81
2022/07/13 03:22:51;;;;;;;1384.75;999.90;;;25.30;99.90;;;;;;5066332;28;20545;-82
2022/07/13 03:25:17;;;;;;;1381.13;999.90;;;25.40;99.90;;;;;;5063156;28;20189;-81
2022/07/13 03:27:43;;;;;;;1441.40;999.90;;;25.50;99.90;;;;;;5054644;28;20189;-82
2022/07/13 03:30:09;;;;;;;1400.75;999.90;;;25.20;99.90;;;;;;5026022;28;20266;-82
2022/07/13 03:32:34;;;;;;;1475.93;999.90;;;25.20;99.90;;;;;;5064235;28;20268;-81
2022/07/13 03:35:00;;;;;;;1439.57;999.90;;;25.10;99.90;;;;;;5082905;28;20219;-81
2022/07/13 03:37:26;;;;;;;1441.57;999.90;;;25.10;99.90;;;;;;5076743;28;20182;-81
2022/07/13 03:39:52;;;;;;;1380.05;999.90;;;25.10;99.90;;;;;;5080196;28;20213;-82
2022/07/13 03:42:17;;;;;;;1462.25;999.90;;;25.20;99.90;;;;;;5078858;28;20187;-82
2022/07/13 03:44:43;;;;;;;1389.88;999.90;;;25.30;99.90;;;;;;5051841;28;20204;-81
2022/07/13 03:47:09;;;;;;;1417.20;999.90;;;25.30;99.90;;;;;;5056201;28;20196;-82
2022/07/13 03:49:34;;;;;;;1448.30;999.90;;;25.30;99.90;;;;;;5093335;28;20292;-82
2022/07/13 03:52:00;;;;;;;1410.32;999.90;;;25.30;99.90;;;;;;5055462;28;20620;-81
2022/07/13 03:54:26;;;;;;;1350.20;999.90;;;25.20;99.90;;;;;;5067215;28;20668;-81
2022/07/13 03:56:51;;;;;;;1410.63;999.90;;;25.20;99.90;;;;;;5091376;28;20188;-81
2022/07/13 03:59:17;;;;;;;1403.15;999.90;;;25.30;99.90;;;;;;5077405;28;20617;-81
2022/07/13 04:01:43;;;;;;;1403.32;999.90;;;25.20;99.90;;;;;;5077240;28;20220;-81
2022/07/13 04:04:08;;;;;;;1405.32;999.90;;;25.00;99.90;;;;;;5093481;28;20633;-81
2022/07/13 04:06:34;;;;;;;1439.32;999.90;;;24.80;99.90;;;;;;5059768;28;20603;-80
2022/07/13 04:09:00;;;;;;;1502.90;999.90;;;24.90;99.90;;;;;;5076096;28;20638;-80
2022/07/13 04:11:26;;;;;;;1475.05;999.90;;;24.90;99.90;;;;;;5071941;28;20641;-79
2022/07/13 04:13:52;;;;;;;1471.78;999.90;;;24.80;99.90;;;;;;5086778;28;20181;-81
2022/07/13 04:16:18;;;;;;;1469.28;999.90;;;24.90;99.90;;;;;;5061336;28;20197;-80
2022/07/13 04:18:44;;;;;;;1505.20;999.90;;;25.00;99.90;;;;;;5087887;28;20177;-81
2022/07/13 04:21:11;;;;;;;1512.40;999.90;;;25.10;99.90;;;;;;5065815;28;20696;-79
2022/07/13 04:23:37;;;;;;;1486.63;999.90;;;25.20;99.90;;;;;;5095224;28;20188;-81
2022/07/13 04:26:03;;;;;;;1511.07;999.90;;;25.20;99.90;;;;;;5095231;28;20248;-81
2022/07/13 04:28:29;;;;;;;1454.25;999.90;;;25.20;99.90;;;;;;5077262;28;20238;-81
2022/07/13 04:30:54;;;;;;;1522.63;999.90;;;25.20;99.90;;;;;;5066034;28;20194;-81
2022/07/13 04:33:20;;;;;;;1532.18;999.90;;;25.20;99.90;;;;;;5056495;28;20196;-81
2022/07/13 04:35:46;;;;;;;1543.10;999.90;;;25.10;99.90;;;;;;5066424;28;20222;-81
2022/07/13 04:38:12;;;;;;;1529.65;999.90;;;25.10;99.90;;;;;;5076383;28;20630;-81
2022/07/13 04:40:39;;;;;;;1494.57;999.90;;;25.20;99.90;;;;;;5095620;28;20201;-81
2022/07/13 04:43:04;;;;;;;1536.18;999.90;;;25.20;99.90;;;;;;5072629;28;20204;-81
2022/07/13 04:45:32;;;;;;;1622.03;999.90;;;25.20;99.90;;;;;;5075789;28;21979;-80
2022/07/13 04:47:58;;;;;;;1642.88;999.90;;;25.10;99.90;;;;;;5075702;28;20185;-80
2022/07/13 04:50:24;;;;;;;1513.97;999.90;;;25.10;99.90;;;;;;5081054;28;20181;-80
2022/07/13 04:52:50;;;;;;;1526.03;999.90;;;25.00;99.90;;;;;;5071123;28;20196;-81
2022/07/13 04:55:16;;;;;;;1491.40;999.90;;;25.00;99.90;;;;;;5065576;28;20181;-81
2022/07/13 04:57:42;;;;;;;1518.00;999.90;;;25.10;99.90;;;;;;5071123;28;20554;-81
2022/07/13 05:00:09;;;;;;;1511.45;999.90;;;25.30;99.90;;;;;;5069513;28;20208;-81
2022/07/13 05:02:35;;;;;;;1477.38;999.90;;;25.30;99.90;;;;;;5080975;28;20188;-80
2022/07/13 05:05:02;;;;;;;1442.90;999.90;;;25.30;99.90;;;;;;5083984;28;20227;-80
2022/07/13 05:07:29;;;;;;;1877.38;999.90;;;25.40;99.90;;;;;;5075021;28;20185;-80
2022/07/13 05:09:55;;;;;;;1513.72;999.90;;;25.40;99.90;;;;;;5058762;28;20193;-79
2022/07/13 05:12:20;;;;;;;1545.10;999.90;;;25.30;99.90;;;;;;5082475;28;20181;-81
2022/07/13 05:14:46;;;;;;;1550.22;999.90;;;25.20;99.90;;;;;;5061693;28;20184;-80
2022/07/13 05:17:12;;;;;;;1540.68;999.90;;;25.30;99.90;;;;;;5075654;28;20199;-80
2022/07/13 05:19:38;;;;;;;1552.38;999.90;;;25.10;99.90;;;;;;5092619;28;20180;-78
2022/07/13 05:22:04;;;;;;;1553.72;999.90;;;25.10;99.90;;;;;;5075375;28;20207;-79
2022/07/13 05:24:29;;;;;;;1529.13;999.90;;;25.00;99.90;;;;;;5093995;28;20575;-79
2022/07/13 05:26:55;;;;;;;1533.75;999.90;;;25.20;99.90;;;;;;5069070;28;20192;-80
2022/07/13 05:29:21;;;;;;;1539.63;999.90;;;25.30;99.90;;;;;;5075862;28;20214;-79
2022/07/13 05:31:46;;;;;;;1530.05;999.90;;;25.40;99.90;;;;;;5075017;28;20275;-79
2022/07/13 05:34:12;;;;;;;1538.78;999.90;;;25.30;99.90;;;;;;5042549;28;20277;-78
2022/07/13 05:36:38;;;;;;;1539.55;999.90;;;25.40;99.90;;;;;;5089951;28;20189;-80
2022/07/13 05:39:04;;;;;;;1542.07;999.90;;;25.60;99.90;;;;;;5093245;28;20556;-80
2022/07/13 05:41:29;;;;;;;1520.97;999.90;;;25.60;99.90;;;;;;5079290;28;20267;-78
2022/07/13 05:43:55;;;;;;;1541.18;999.90;;;25.60;99.90;;;;;;5092329;28;20211;-79
2022/07/13 05:46:21;;;;;;;1548.78;999.90;;;25.70;99.90;;;;;;5048722;28;20734;-78
2022/07/13 05:48:46;;;;;;;1536.70;999.90;;;25.70;99.90;;;;;;5090489;28;20638;-80
2022/07/13 05:51:12;;;;;;;1537.85;999.90;;;25.70;99.90;;;;;;5074940;28;20192;-79
2022/07/13 05:53:38;;;;;;;1536.05;999.90;;;25.70;99.90;;;;;;5091136;28;20264;-79
2022/07/13 05:56:04;;;;;;;1531.72;999.90;;;25.60;99.90;;;;;;5084534;28;20213;-79
2022/07/13 05:58:31;;;;;;;1535.75;999.90;;;25.60;99.90;;;;;;5072436;28;20669;-80
2022/07/13 06:00:56;;;;;;;1534.15;999.90;;;25.70;99.90;;;;;;5090881;28;20292;-80
2022/07/13 06:03:22;;;;;;;1530.45;999.90;;;25.70;99.90;;;;;;5092741;28;20713;-79
2022/07/13 06:05:48;;;;;;;1524.38;999.90;;;25.70;99.90;;;;;;5077412;28;20204;-79
2022/07/13 06:08:13;;;;;;;1525.28;999.90;;;25.80;99.90;;;;;;5062367;28;20233;-79
2022/07/13 06:10:39;;;;;;;1513.18;999.90;;;25.90;99.90;;;;;;5073724;28;20189;-81
2022/07/13 06:13:06;;;;;;;1522.43;999.90;;;25.90;99.90;;;;;;5074860;28;20246;-80
2022/07/13 06:15:32;;;;;;;1523.82;999.90;;;25.90;99.90;;;;;;5092610;28;20272;-80
2022/07/13 06:17:57;;;;;;;1513.97;999.90;;;26.00;99.90;;;;;;5074424;28;20267;-80
2022/07/13 06:20:23;;;;;;;1511.28;999.90;;;26.00;99.90;;;;;;5086796;28;20215;-80
2022/07/13 06:23:09;;;;;;;1497.82;999.90;;;26.10;99.90;;;;;;5092246;28;20189;-77
2022/07/13 06:25:34;;;;;;;1520.93;999.90;;;26.20;99.90;;;;;;5083343;28;20227;-80
2022/07/13 06:28:00;;;;;;;1484.53;999.90;;;26.60;99.90;;;;;;5074331;28;20633;-80
2022/07/13 06:30:26;;;;;;;1496.65;999.90;;;26.60;99.90;;;;;;5092354;28;20275;-79
2022/07/13 06:32:51;;;;;;;1488.10;999.90;;;26.80;99.90;;;;;;5089765;28;20255;-79
2022/07/13 06:35:17;;;;;;;1487.88;999.90;;;27.10;99.90;;;;;;5083846;28;20308;-79
2022/07/13 06:37:42;;;;;;;1473.43;999.90;;;27.00;99.90;;;;;;5066851;28;20272;-79
2022/07/13 06:40:09;;;;;;;1465.13;999.90;;;26.90;99.90;;;;;;5060369;28;21802;-80
2022/07/13 06:42:35;;;;;;;1458.57;999.90;;;26.80;99.90;;;;;;5084705;28;20199;-79
2022/07/13 06:45:00;;;;;;;1482.75;999.90;;;27.00;99.90;;;;;;5072231;28;20633;-80
2022/07/13 06:47:26;;;;;;;1470.55;999.90;;;27.00;99.90;;;;;;5056859;28;20257;-80
2022/07/13 06:49:51;;;;;;;1469.97;999.90;;;27.00;99.90;;;;;;5081864;28;20637;-79
2022/07/13 06:52:17;;;;;;;1463.97;999.90;;;27.20;99.90;;;;;;5070010;28;20203;-79
2022/07/13 06:54:43;;;;;;;1457.32;999.90;;;27.40;99.90;;;;;;5083775;28;20192;-80
2022/07/13 06:57:08;;;;;;;1457.47;999.90;;;27.70;99.90;;;;;;5057106;28;20659;-79
2022/07/13 06:59:34;;;;;;;1460.18;999.90;;;27.90;99.90;;;;;;5045628;28;20184;-79
2022/07/13 07:02:00;;;;;;;1456.18;999.90;;;27.90;99.90;;;;;;5057880;28;20192;-80
2022/07/13 07:04:25;;;;;;;1444.57;999.90;;;28.00;99.90;;;;;;5072147;28;20184;-80
2022/07/13 07:06:51;;;;;;;1435.85;999.90;;;28.30;99.90;;;;;;5062495;28;20212;-79
2022/07/13 07:09:17;;;;;;;1431.97;999.90;;;28.40;99.90;;;;;;5092732;28;20184;-79
2022/07/13 07:11:44;;;;;;;1403.57;999.90;;;28.50;99.90;;;;;;5055670;28;20219;-80
2022/07/13 07:14:10;;;;;;;1410.15;999.90;;;28.40;99.90;;;;;;5058395;28;20230;-79
2022/07/13 07:16:37;;;;;;;1400.95;999.90;;;28.30;99.90;;;;;;5077808;28;20185;-79
2022/07/13 07:19:03;;;;;;;1403.10;999.90;;;28.40;99.90;;;;;;5072844;28;20185;-79
2022/07/13 07:21:28;;;;;;;1407.50;999.90;;;28.70;99.90;;;;;;5068826;28;20207;-79
2022/07/13 07:23:54;;;;;;;1400.85;999.90;;;29.00;99.90;;;;;;5043014;28;20188;-79
2022/07/13 07:26:20;;;;;;;1401.45;999.90;;;29.40;99.90;;;;;;5077872;28;20645;-79
2022/07/13 07:28:46;;;;;;;1395.07;999.90;;;29.40;99.90;;;;;;5073619;28;20188;-80
2022/07/13 07:31:11;;;;;;;1393.93;999.90;;;29.50;99.90;;;;;;5073175;28;20191;-79
2022/07/13 07:33:37;;;;;;;1402.72;999.90;;;29.70;99.90;;;;;;5073183;28;20181;-79
2022/07/13 07:36:03;;;;;;;1396.90;999.90;;;30.50;99.90;;;;;;5076844;28;20214;-79
2022/07/13 07:38:29;;;;;;;1386.50;999.90;;;32.20;99.90;;;;;;5078479;28;20187;-79
2022/07/13 07:40:56;;;;;;;1378.80;999.90;;;32.70;99.90;;;;;;5047382;28;20208;-79
2022/07/13 07:43:21;;;;;;;1366.72;999.90;;;32.70;99.90;;;;;;5051436;28;20519;-79
2022/07/13 07:45:47;;;;;;;1358.13;999.90;;;32.80;99.90;;;;;;5076727;28;20229;-79
2022/07/13 07:48:13;;;;;;;1358.05;999.90;;;32.50;99.90;;;;;;5081122;28;20188;-79
2022/07/13 07:50:38;;;;;;;1357.28;999.90;;;32.00;99.90;;;;;;5078834;28;20207;-79
2022/07/13 07:53:04;;;;;;;1362.78;999.90;;;31.50;99.90;;;;;;5063064;28;20185;-80
2022/07/13 07:55:30;;;;;;;1358.28;999.90;;;31.00;99.90;;;;;;5063350;28;20185;-79
2022/07/13 07:57:55;;;;;;;1367.65;999.90;;;30.70;99.90;;;;;;5052599;28;20235;-80
2022/07/13 08:00:22;;;;;;;1371.72;999.90;;;30.60;99.90;;;;;;5096264;28;20208;-80
2022/07/13 08:02:48;;;;;;;1367.50;999.90;;;30.50;99.90;;;;;;5074388;28;20192;-79
2022/07/13 08:05:14;;;;;;;1372.70;999.90;;;30.10;99.90;;;;;;5093971;28;20203;-79
2022/07/13 08:07:44;;;;;;;1373.00;999.90;;;30.00;99.90;;;;;;5090646;28;20181;-80
2022/07/13 08:10:12;;;;;;;1381.53;999.90;;;29.90;99.90;;;;;;5080810;28;20184;-79
2022/07/13 08:12:38;;;;;;;1380.63;999.90;;;29.60;99.90;;;;;;5085282;28;20180;-79
2022/07/13 08:15:07;;;;;;;1380.38;999.90;;;29.50;99.90;;;;;;5075923;28;20190;-79
2022/07/13 08:17:35;;;;;;;1387.60;999.90;;;29.50;99.90;;;;;;5068614;28;20176;-78
2022/07/13 08:20:02;;;;;;;1375.53;999.90;;;30.40;99.90;;;;;;5095720;28;20240;-79
2022/07/13 08:22:28;;;;;;;1384.82;999.90;;;30.80;99.90;;;;;;5077790;28;20184;-79
2022/07/13 08:24:54;;;;;;;1379.20;999.90;;;30.70;99.90;;;;;;5094949;28;20191;-79
2022/07/13 08:27:20;;;;;;;1381.03;999.90;;;30.70;99.90;;;;;;5079088;28;20191;-79
2022/07/13 08:29:46;;;;;;;1380.15;999.90;;;30.70;99.90;;;;;;5083282;28;20541;-79
2022/07/13 08:32:12;;;;;;;1386.35;999.90;;;31.30;99.90;;;;;;5083949;28;20294;-79
2022/07/13 08:40:21;;;;;;;1345.38;999.90;;;37.90;99.90;;;;;;5046406;28;20235;-79
2022/07/13 08:42:47;;;;;;;1320.32;999.90;;;38.00;99.90;;;;;;5074833;28;20193;-79
2022/07/13 08:45:14;;;;;;;1319.68;999.90;;;37.20;99.90;;;;;;5059741;28;20168;-79
2022/07/13 08:47:42;;;;;;;1324.68;999.90;;;36.00;99.90;;;;;;5094549;28;20734;-79
2022/07/13 08:50:09;;;;;;;1318.47;999.90;;;34.80;99.90;;;;;;5074544;28;20176;-80
2022/07/13 08:52:37;;;;;;;1320.07;999.90;;;34.10;99.90;;;;;;5071617;28;20269;-81
2022/07/13 08:55:05;;;;;;;1331.95;999.90;;;33.30;99.90;;;;;;5083980;28;20180;-81
2022/07/13 08:57:37;;;;;;;1328.45;999.90;;;32.80;99.90;;;;;;5075021;28;20184;-81
2022/07/13 09:00:07;;;;;;;1504.63;999.90;;;32.60;99.90;;;;;;5077277;28;20261;-80
2022/07/13 09:02:33;;;;;;;1332.28;999.90;;;32.10;99.90;;;;;;5073440;28;20270;-80
2022/07/13 09:05:04;;;;;;;1332.47;999.90;;;32.00;99.90;;;;;;5076434;28;20195;-81
2022/07/13 09:07:30;;;;;;;1338.28;999.90;;;31.60;99.90;;;;;;5060072;28;20189;-79
2022/07/13 09:09:56;;;;;;;1347.53;999.90;;;31.50;99.90;;;;;;5083234;28;20241;-81
2022/07/13 09:12:27;;;;;;;1347.93;999.90;;;31.50;99.90;;;;;;5071968;28;20179;-82
2022/07/13 09:14:56;;;;;;;1350.90;999.90;;;31.30;99.90;;;;;;5080076;28;20176;-81
2022/07/13 09:17:38;;;;;;;1360.20;999.90;;;31.10;99.90;;;;;;5093308;28;20271;-79
2022/07/13 09:20:10;;;;;;;1356.60;999.90;;;31.00;99.90;;;;;;5075066;28;20230;-81
2022/07/13 09:22:51;;;;;;;1363.93;999.90;;;31.00;99.90;;;;;;5074451;28;20184;-80
2022/07/13 09:25:27;;;;;;;1361.53;999.90;;;31.20;99.90;;;;;;5068739;28;20207;-80
2022/07/13 09:27:53;;;;;;;1362.80;999.90;;;31.60;99.90;;;;;;5084471;28;20201;-77
2022/07/13 09:30:24;;;;;;;1363.53;999.90;;;33.00;99.90;;;;;;5066750;28;20189;-82
2022/07/13 09:32:52;;;;;;;1360.75;999.90;;;34.70;99.90;;;;;;5074164;28;20622;-82
2022/07/13 09:35:17;;;;;;;1352.32;999.90;;;35.20;99.90;;;;;;5052190;28;20204;-82
2022/07/13 09:37:43;;;;;;;1349.50;999.90;;;34.80;99.90;;;;;;5074793;28;20203;-83
2022/07/13 09:40:11;;;;;;;1339.45;999.90;;;34.30;99.90;;;;;;5076945;28;20331;-79
2022/07/13 09:42:39;;;;;;;1344.68;999.90;;;33.80;99.90;;;;;;5056636;28;20185;-73
2022/07/13 09:47:55;;;;;;;1348.65;999.90;;;33.10;99.90;;;;;;5075533;28;20248;-75
2022/07/13 09:50:40;;;;;;;1349.78;999.90;;;32.70;99.90;;;;;;5060154;28;20192;-80
2022/07/13 09:53:28;;;;;;;1356.82;999.90;;;32.60;99.90;;;;;;5081401;28;20191;-78
2022/07/13 09:55:57;;;;;;;1361.47;999.90;;;32.60;99.90;;;;;;5062049;28;20188;-79
2022/07/13 09:58:31;;;;;;;1360.55;999.90;;;32.60;99.90;;;;;;5074334;28;20181;-77
2022/07/13 10:00:58;;;;;;;1359.88;999.90;;;32.40;99.90;;;;;;5078397;28;20303;-71
2022/07/13 10:03:26;;;;;;;1359.10;999.90;;;32.80;99.90;;;;;;5076406;28;20192;-71
2022/07/13 10:05:53;;;;;;;1355.95;999.90;;;32.90;99.90;;;;;;5075408;28;20193;-74
2022/07/13 10:08:19;;;;;;;1366.55;999.90;;;33.00;99.90;;;;;;5061801;28;20188;-74
2022/07/13 10:10:46;;;;;;;1354.85;999.90;;;32.90;99.90;;;;;;5064939;28;20652;-74
2022/07/13 10:13:12;;;;;;;1355.28;999.90;;;32.90;99.90;;;;;;5052845;28;20193;-69
2022/07/13 10:15:39;;;;;;;1358.28;999.90;;;32.90;99.90;;;;;;5069036;28;20180;-73
2022/07/13 10:18:09;;;;;;;1353.78;999.90;;;33.00;99.90;;;;;;5046407;28;20181;-71
2022/07/13 10:20:37;;;;;;;1360.05;999.90;;;33.00;99.90;;;;;;5067203;28;20774;-74
2022/07/13 10:23:03;;;;;;;1368.28;999.90;;;33.00;99.90;;;;;;5070569;28;20184;-73
2022/07/13 10:25:43;;;;;;;1364.60;999.90;;;33.00;99.90;;;;;;5074988;28;20651;-72
2022/07/13 10:28:09;;;;;;;1364.28;999.90;;;32.60;99.90;;;;;;5069593;28;20188;-73
2022/07/13 10:30:36;;;;;;;1364.55;999.90;;;32.50;99.90;;;;;;5063707;28;20191;-73
2022/07/13 10:33:22;;;;;;;1371.75;999.90;;;32.50;99.90;;;;;;5077817;28;20188;-73
2022/07/13 10:35:53;;;;;;;1370.22;999.90;;;32.50;99.90;;;;;;5063961;28;20274;-73
2022/07/13 10:38:22;;;;;;;1366.75;999.90;;;32.50;99.90;;;;;;5058292;28;20280;-72
2022/07/13 10:40:48;;;;;;;1366.85;999.90;;;32.60;99.90;;;;;;5061282;28;20208;-74
2022/07/13 10:43:16;;;;;;;1380.38;999.90;;;32.50;99.90;;;;;;5065977;28;20230;-73
2022/07/13 10:45:48;;;;;;;1375.80;999.90;;;32.40;99.90;;;;;;5067491;28;20181;-72
2022/07/13 10:48:17;;;;;;;1372.20;999.90;;;32.30;99.90;;;;;;5085215;28;20180;-72
2022/07/13 10:50:52;;;;;;;1366.53;999.90;;;32.40;99.90;;;;;;5072965;28;20219;-72
2022/07/13 10:53:21;;;;;;;1364.05;999.90;;;32.40;99.90;;;;;;5068033;28;20215;-72
2022/07/13 10:55:51;;;;;;;1361.07;999.90;;;32.60;99.90;;;;;;5085313;28;20701;-72
2022/07/13 10:58:32;;;;;;;1364.60;999.90;;;32.90;99.90;;;;;;5066771;28;20640;-72
2022/07/13 11:00:59;;;;;;;1369.18;999.90;;;33.00;99.90;;;;;;5072187;28;20262;-72
2022/07/13 11:03:35;;;;;;;1366.85;999.90;;;33.30;99.90;;;;;;5055445;28;20192;-71
2022/07/13 11:06:05;;;;;;;1362.03;999.90;;;33.60;99.90;;;;;;5080651;28;20234;-72
2022/07/13 11:08:31;;;;;;;1363.70;999.90;;;33.70;99.90;;;;;;5073827;28;20633;-73
2022/07/13 11:11:28;;;;;;;1361.07;999.90;;;33.80;99.90;;;;;;5086356;28;20228;-74
2022/07/13 11:13:53;;;;;;;1356.07;999.90;;;33.70;99.90;;;;;;5083554;28;20183;-72
2022/07/13 11:16:49;;;;;;;1352.55;999.90;;;33.70;99.90;;;;;;5063996;28;20181;-70
2022/07/13 11:19:15;;;;;;;1350.40;999.90;;;33.60;99.90;;;;;;5076778;28;20196;-73
2022/07/13 11:22:10;;;;;;;1355.45;999.90;;;33.70;99.90;;;;;;5084368;28;20216;-71
2022/07/13 11:27:36;;;;;;;1350.40;999.90;;;33.90;99.90;;;;;;5078285;28;20184;-71
2022/07/13 11:30:03;;;;;;;1349.60;999.90;;;34.20;99.90;;;;;;5066919;28;20188;-73
2022/07/13 11:32:29;;;;;;;1343.32;999.90;;;34.40;99.90;;;;;;5076513;28;20699;-72
2022/07/13 11:34:55;;;;;;;1347.03;999.90;;;34.60;99.90;;;;;;5042898;28;20192;-73
2022/07/13 11:37:27;;;;;;;1353.15;999.90;;;34.70;99.90;;;;;;5057589;28;20215;-70
2022/07/13 11:39:53;;;;;;;1334.50;999.90;;;34.70;99.90;;;;;;5083174;28;20682;-71
2022/07/13 11:42:23;;;;;;;1328.13;999.90;;;34.70;99.90;;;;;;5055981;28;20180;-72
2022/07/13 11:44:52;;;;;;;1320.55;999.90;;;34.50;99.90;;;;;;5077918;28;20184;-78
2022/07/13 11:47:18;;;;;;;1321.32;999.90;;;34.20;99.90;;;;;;5077463;28;20520;-75
2022/07/13 11:49:46;;;;;;;1324.10;999.90;;;33.90;99.90;;;;;;5071641;28;20191;-73
2022/07/13 11:52:38;;;;;;;1324.22;999.90;;;33.90;99.90;;;;;;5063999;28;20195;-77
2022/07/13 11:55:05;;;;;;;1320.38;999.90;;;33.80;99.90;;;;;;5075624;28;20323;-75
2022/07/13 11:57:33;;;;;;;1323.97;999.90;;;34.00;99.90;;;;;;5077541;28;20176;-77
2022/07/13 12:00:04;;;;;;;1325.82;999.90;;;34.10;99.90;;;;;;5085915;28;20179;-77
2022/07/13 12:02:30;;;;;;;1322.82;999.90;;;34.00;99.90;;;;;;5088186;28;20187;-76
2022/07/13 12:04:56;;;;;;;1323.40;999.90;;;34.10;99.90;;;;;;5048426;28;20204;-77
2022/07/13 12:07:29;;;;;;;1324.35;999.90;;;34.00;99.90;;;;;;5067836;28;20191;-76
2022/07/13 12:10:04;;;;;;;1319.75;999.90;;;33.80;99.90;;;;;;5073032;28;20520;-76